sensor_id;sensor_type;location;lat;lon;timestamp;P1;durP1;ratioP1;P2;durP2;ratioP2
53843;SDS011;39744;53.314;5.710;2023-03-31T00:00:35;52.35;;;7.22;;
53843;SDS011;39744;53.314;5.710;2023-03-31T00:03:01;45.40;;;8.32;;
53843;SDS011;39744;53.314;5.710;2023-03-31T00:05:35;49.50;;;6.67;;
53843;SDS011;39744;53.314;5.710;2023-03-31T00:08:01;56.50;;;7.13;;
53843;SDS011;39744;53.314;5.710;2023-03-31T00:10:31;43.15;;;6.53;;
53843;SDS011;39744;53.314;5.710;2023-03-31T00:12:58;51.20;;;8.85;;
53843;SDS011;39744;53.314;5.710;2023-03-31T00:15:24;39.45;;;6.63;;
53843;SDS011;39744;53.314;5.710;2023-03-31T00:17:51;48.03;;;7.00;;
53843;SDS011;39744;53.314;5.710;2023-03-31T00:20:17;42.13;;;6.68;;
53843;SDS011;39744;53.314;5.710;2023-03-31T00:22:43;48.58;;;7.05;;
53843;SDS011;39744;53.314;5.710;2023-03-31T00:25:13;41.58;;;7.05;;
53843;SDS011;39744;53.314;5.710;2023-03-31T00:27:43;39.70;;;6.30;;
53843;SDS011;39744;53.314;5.710;2023-03-31T00:30:10;47.67;;;7.25;;
53843;SDS011;39744;53.314;5.710;2023-03-31T00:32:37;37.80;;;6.78;;
53843;SDS011;39744;53.314;5.710;2023-03-31T00:35:03;38.47;;;6.40;;
53843;SDS011;39744;53.314;5.710;2023-03-31T00:37:30;35.85;;;6.40;;
53843;SDS011;39744;53.314;5.710;2023-03-31T00:39:57;42.13;;;6.80;;
53843;SDS011;39744;53.314;5.710;2023-03-31T00:42:24;36.72;;;6.70;;
53843;SDS011;39744;53.314;5.710;2023-03-31T00:47:34;42.92;;;6.93;;
53843;SDS011;39744;53.314;5.710;2023-03-31T00:50:00;34.28;;;6.28;;
53843;SDS011;39744;53.314;5.710;2023-03-31T00:52:29;46.67;;;7.50;;
53843;SDS011;39744;53.314;5.710;2023-03-31T00:55:01;46.50;;;8.27;;
53843;SDS011;39744;53.314;5.710;2023-03-31T00:57:31;38.65;;;6.75;;
53843;SDS011;39744;53.314;5.710;2023-03-31T00:59:58;40.40;;;6.55;;
53843;SDS011;39744;53.314;5.710;2023-03-31T01:02:26;43.20;;;6.90;;
53843;SDS011;39744;53.314;5.710;2023-03-31T01:04:54;35.50;;;7.13;;
53843;SDS011;39744;53.314;5.710;2023-03-31T01:07:25;44.22;;;6.40;;
53843;SDS011;39744;53.314;5.710;2023-03-31T01:09:56;35.85;;;5.78;;
53843;SDS011;39744;53.314;5.710;2023-03-31T01:12:24;52.35;;;6.47;;
53843;SDS011;39744;53.314;5.710;2023-03-31T01:14:51;40.17;;;6.85;;
53843;SDS011;39744;53.314;5.710;2023-03-31T01:17:17;41.22;;;6.25;;
53843;SDS011;39744;53.314;5.710;2023-03-31T01:25:29;33.63;;;5.63;;
53843;SDS011;39744;53.314;5.710;2023-03-31T01:43:15;34.60;;;6.28;;
53843;SDS011;39744;53.314;5.710;2023-03-31T01:46:01;37.40;;;5.60;;
53843;SDS011;39744;53.314;5.710;2023-03-31T01:51:08;45.42;;;6.43;;
53843;SDS011;39744;53.314;5.710;2023-03-31T01:56:29;35.50;;;5.50;;
53843;SDS011;39744;53.314;5.710;2023-03-31T01:58:57;34.88;;;5.85;;
53843;SDS011;39744;53.314;5.710;2023-03-31T02:04:25;39.38;;;5.95;;
53843;SDS011;39744;53.314;5.710;2023-03-31T02:06:46;29.90;;;5.55;;
53843;SDS011;39744;53.314;5.710;2023-03-31T02:09:19;33.33;;;5.60;;
53843;SDS011;39744;53.314;5.710;2023-03-31T02:11:46;35.10;;;6.03;;
53843;SDS011;39744;53.314;5.710;2023-03-31T02:14:14;35.00;;;5.88;;
53843;SDS011;39744;53.314;5.710;2023-03-31T02:16:43;38.67;;;6.43;;
53843;SDS011;39744;53.314;5.710;2023-03-31T02:19:11;37.70;;;5.82;;
53843;SDS011;39744;53.314;5.710;2023-03-31T02:21:42;33.92;;;6.72;;
53843;SDS011;39744;53.314;5.710;2023-03-31T02:24:10;33.08;;;5.95;;
53843;SDS011;39744;53.314;5.710;2023-03-31T02:26:41;43.10;;;6.45;;
53843;SDS011;39744;53.314;5.710;2023-03-31T02:29:09;41.70;;;6.97;;
53843;SDS011;39744;53.314;5.710;2023-03-31T02:34:20;42.88;;;6.32;;
53843;SDS011;39744;53.314;5.710;2023-03-31T02:36:46;29.20;;;5.00;;
53843;SDS011;39744;53.314;5.710;2023-03-31T02:39:15;29.35;;;5.13;;
53843;SDS011;39744;53.314;5.710;2023-03-31T02:41:42;31.83;;;5.97;;
53843;SDS011;39744;53.314;5.710;2023-03-31T02:44:08;30.30;;;6.82;;
53843;SDS011;39744;53.314;5.710;2023-03-31T02:46:35;30.70;;;5.32;;
53843;SDS011;39744;53.314;5.710;2023-03-31T02:49:02;35.13;;;5.50;;
53843;SDS011;39744;53.314;5.710;2023-03-31T02:51:37;39.67;;;6.70;;
53843;SDS011;39744;53.314;5.710;2023-03-31T02:54:17;30.83;;;6.07;;
53843;SDS011;39744;53.314;5.710;2023-03-31T03:02:03;31.25;;;6.53;;
53843;SDS011;39744;53.314;5.710;2023-03-31T03:07:12;34.80;;;5.50;;
53843;SDS011;39744;53.314;5.710;2023-03-31T03:12:51;28.30;;;4.85;;
53843;SDS011;39744;53.314;5.710;2023-03-31T03:17:27;26.05;;;5.07;;
53843;SDS011;39744;53.314;5.710;2023-03-31T03:19:56;30.13;;;4.82;;
53843;SDS011;39744;53.314;5.710;2023-03-31T03:22:23;27.98;;;5.47;;
53843;SDS011;39744;53.314;5.710;2023-03-31T03:24:50;23.98;;;4.38;;
53843;SDS011;39744;53.314;5.710;2023-03-31T03:27:17;26.33;;;4.38;;
53843;SDS011;39744;53.314;5.710;2023-03-31T03:29:43;31.50;;;4.95;;
53843;SDS011;39744;53.314;5.710;2023-03-31T03:32:10;22.70;;;4.90;;
53843;SDS011;39744;53.314;5.710;2023-03-31T03:34:36;29.08;;;4.93;;
53843;SDS011;39744;53.314;5.710;2023-03-31T03:37:02;25.40;;;5.65;;
53843;SDS011;39744;53.314;5.710;2023-03-31T03:39:28;33.92;;;4.75;;
53843;SDS011;39744;53.314;5.710;2023-03-31T03:41:54;34.45;;;5.10;;
53843;SDS011;39744;53.314;5.710;2023-03-31T03:44:20;26.98;;;5.13;;
53843;SDS011;39744;53.314;5.710;2023-03-31T03:46:46;20.25;;;5.65;;
53843;SDS011;39744;53.314;5.710;2023-03-31T03:49:12;17.25;;;5.15;;
53843;SDS011;39744;53.314;5.710;2023-03-31T03:51:38;21.05;;;5.43;;
53843;SDS011;39744;53.314;5.710;2023-03-31T03:54:04;24.95;;;5.53;;
53843;SDS011;39744;53.314;5.710;2023-03-31T03:56:30;19.88;;;5.13;;
53843;SDS011;39744;53.314;5.710;2023-03-31T03:58:56;22.10;;;5.95;;
53843;SDS011;39744;53.314;5.710;2023-03-31T04:01:23;19.25;;;4.97;;
53843;SDS011;39744;53.314;5.710;2023-03-31T04:03:49;19.90;;;5.38;;
53843;SDS011;39744;53.314;5.710;2023-03-31T04:06:15;15.52;;;4.78;;
53843;SDS011;39744;53.314;5.710;2023-03-31T04:08:41;18.30;;;5.13;;
53843;SDS011;39744;53.314;5.710;2023-03-31T04:11:12;16.15;;;4.38;;
53843;SDS011;39744;53.314;5.710;2023-03-31T04:13:39;21.90;;;5.28;;
53843;SDS011;39744;53.314;5.710;2023-03-31T04:16:06;21.08;;;5.55;;
53843;SDS011;39744;53.314;5.710;2023-03-31T04:18:32;23.40;;;6.20;;
53843;SDS011;39744;53.314;5.710;2023-03-31T04:21:01;20.88;;;7.43;;
53843;SDS011;39744;53.314;5.710;2023-03-31T04:23:34;28.17;;;7.93;;
53843;SDS011;39744;53.314;5.710;2023-03-31T04:26:11;24.75;;;7.45;;
53843;SDS011;39744;53.314;5.710;2023-03-31T04:28:37;24.48;;;7.85;;
53843;SDS011;39744;53.314;5.710;2023-03-31T04:31:08;25.73;;;7.35;;
53843;SDS011;39744;53.314;5.710;2023-03-31T04:33:34;26.48;;;8.07;;
53843;SDS011;39744;53.314;5.710;2023-03-31T04:36:04;30.38;;;7.75;;
53843;SDS011;39744;53.314;5.710;2023-03-31T04:38:42;23.75;;;7.18;;
53843;SDS011;39744;53.314;5.710;2023-03-31T04:41:11;20.98;;;6.80;;
53843;SDS011;39744;53.314;5.710;2023-03-31T04:43:36;24.77;;;6.68;;
53843;SDS011;39744;53.314;5.710;2023-03-31T04:46:02;25.48;;;7.40;;
53843;SDS011;39744;53.314;5.710;2023-03-31T04:48:29;23.48;;;7.13;;
53843;SDS011;39744;53.314;5.710;2023-03-31T04:50:55;20.20;;;6.03;;
53843;SDS011;39744;53.314;5.710;2023-03-31T04:53:21;28.25;;;6.43;;
53843;SDS011;39744;53.314;5.710;2023-03-31T04:55:47;21.63;;;6.85;;
53843;SDS011;39744;53.314;5.710;2023-03-31T04:58:13;23.52;;;6.57;;
53843;SDS011;39744;53.314;5.710;2023-03-31T05:00:40;21.67;;;6.65;;
53843;SDS011;39744;53.314;5.710;2023-03-31T05:03:06;20.15;;;6.45;;
53843;SDS011;39744;53.314;5.710;2023-03-31T05:05:33;27.35;;;7.13;;
53843;SDS011;39744;53.314;5.710;2023-03-31T05:07:59;33.05;;;7.43;;
53843;SDS011;39744;53.314;5.710;2023-03-31T05:10:25;20.35;;;6.68;;
53843;SDS011;39744;53.314;5.710;2023-03-31T05:12:51;24.10;;;6.90;;
53843;SDS011;39744;53.314;5.710;2023-03-31T05:15:17;23.15;;;7.00;;
53843;SDS011;39744;53.314;5.710;2023-03-31T05:17:43;25.95;;;6.97;;
53843;SDS011;39744;53.314;5.710;2023-03-31T05:20:09;23.42;;;6.80;;
53843;SDS011;39744;53.314;5.710;2023-03-31T05:22:37;24.05;;;7.50;;
53843;SDS011;39744;53.314;5.710;2023-03-31T05:25:04;28.23;;;7.88;;
53843;SDS011;39744;53.314;5.710;2023-03-31T05:27:31;26.95;;;7.55;;
53843;SDS011;39744;53.314;5.710;2023-03-31T05:29:57;20.65;;;7.53;;
53843;SDS011;39744;53.314;5.710;2023-03-31T05:32:23;28.40;;;8.40;;
53843;SDS011;39744;53.314;5.710;2023-03-31T05:34:49;25.65;;;8.05;;
53843;SDS011;39744;53.314;5.710;2023-03-31T05:37:17;22.10;;;7.90;;
53843;SDS011;39744;53.314;5.710;2023-03-31T05:39:43;21.58;;;7.85;;
53843;SDS011;39744;53.314;5.710;2023-03-31T05:42:10;25.45;;;7.63;;
53843;SDS011;39744;53.314;5.710;2023-03-31T05:44:36;20.70;;;7.97;;
53843;SDS011;39744;53.314;5.710;2023-03-31T05:47:02;22.15;;;7.40;;
53843;SDS011;39744;53.314;5.710;2023-03-31T05:49:28;28.58;;;8.43;;
53843;SDS011;39744;53.314;5.710;2023-03-31T05:51:54;23.65;;;8.00;;
53843;SDS011;39744;53.314;5.710;2023-03-31T05:54:20;22.00;;;7.80;;
53843;SDS011;39744;53.314;5.710;2023-03-31T05:56:46;23.17;;;8.00;;
53843;SDS011;39744;53.314;5.710;2023-03-31T05:59:13;22.88;;;8.15;;
53843;SDS011;39744;53.314;5.710;2023-03-31T06:01:39;27.73;;;8.75;;
53843;SDS011;39744;53.314;5.710;2023-03-31T06:04:05;20.40;;;8.02;;
53843;SDS011;39744;53.314;5.710;2023-03-31T06:06:31;20.67;;;7.70;;
53843;SDS011;39744;53.314;5.710;2023-03-31T06:08:58;26.90;;;7.85;;
53843;SDS011;39744;53.314;5.710;2023-03-31T06:11:25;18.70;;;7.20;;
53843;SDS011;39744;53.314;5.710;2023-03-31T06:13:51;32.35;;;8.25;;
53843;SDS011;39744;53.314;5.710;2023-03-31T06:16:17;18.25;;;7.00;;
53843;SDS011;39744;53.314;5.710;2023-03-31T06:18:43;21.60;;;7.70;;
53843;SDS011;39744;53.314;5.710;2023-03-31T06:21:11;27.90;;;8.32;;
53843;SDS011;39744;53.314;5.710;2023-03-31T06:23:37;24.52;;;7.55;;
53843;SDS011;39744;53.314;5.710;2023-03-31T06:26:04;23.73;;;8.02;;
53843;SDS011;39744;53.314;5.710;2023-03-31T06:28:32;24.45;;;8.30;;
53843;SDS011;39744;53.314;5.710;2023-03-31T06:31:02;20.70;;;7.70;;
53843;SDS011;39744;53.314;5.710;2023-03-31T06:33:28;19.63;;;7.57;;
53843;SDS011;39744;53.314;5.710;2023-03-31T06:35:55;24.63;;;7.85;;
53843;SDS011;39744;53.314;5.710;2023-03-31T06:38:22;18.83;;;8.10;;
53843;SDS011;39744;53.314;5.710;2023-03-31T06:40:48;20.10;;;8.38;;
53843;SDS011;39744;53.314;5.710;2023-03-31T06:43:14;19.58;;;8.52;;
53843;SDS011;39744;53.314;5.710;2023-03-31T06:45:40;21.85;;;9.15;;
53843;SDS011;39744;53.314;5.710;2023-03-31T06:48:06;19.15;;;8.40;;
53843;SDS011;39744;53.314;5.710;2023-03-31T06:50:32;21.40;;;8.98;;
53843;SDS011;39744;53.314;5.710;2023-03-31T06:52:58;21.92;;;9.35;;
53843;SDS011;39744;53.314;5.710;2023-03-31T06:55:24;24.48;;;8.68;;
53843;SDS011;39744;53.314;5.710;2023-03-31T06:57:50;18.38;;;7.85;;
53843;SDS011;39744;53.314;5.710;2023-03-31T07:00:17;19.77;;;7.80;;
53843;SDS011;39744;53.314;5.710;2023-03-31T07:02:43;20.90;;;8.23;;
53843;SDS011;39744;53.314;5.710;2023-03-31T07:05:09;18.15;;;7.00;;
53843;SDS011;39744;53.314;5.710;2023-03-31T07:07:35;17.42;;;6.88;;
53843;SDS011;39744;53.314;5.710;2023-03-31T07:10:01;15.95;;;6.80;;
53843;SDS011;39744;53.314;5.710;2023-03-31T07:12:27;16.67;;;6.22;;
53843;SDS011;39744;53.314;5.710;2023-03-31T07:14:53;11.35;;;5.85;;
53843;SDS011;39744;53.314;5.710;2023-03-31T07:17:20;13.48;;;5.50;;
53843;SDS011;39744;53.314;5.710;2023-03-31T07:19:49;12.00;;;4.90;;
53843;SDS011;39744;53.314;5.710;2023-03-31T07:22:15;13.18;;;4.65;;
53843;SDS011;39744;53.314;5.710;2023-03-31T07:24:41;12.40;;;4.72;;
53843;SDS011;39744;53.314;5.710;2023-03-31T07:27:07;11.82;;;4.18;;
53843;SDS011;39744;53.314;5.710;2023-03-31T07:29:33;13.95;;;4.78;;
53843;SDS011;39744;53.314;5.710;2023-03-31T07:31:59;14.80;;;4.25;;
53843;SDS011;39744;53.314;5.710;2023-03-31T07:34:25;11.93;;;4.35;;
53843;SDS011;39744;53.314;5.710;2023-03-31T07:36:53;10.25;;;4.18;;
53843;SDS011;39744;53.314;5.710;2023-03-31T07:39:20;10.25;;;3.85;;
53843;SDS011;39744;53.314;5.710;2023-03-31T07:41:46;9.73;;;3.90;;
53843;SDS011;39744;53.314;5.710;2023-03-31T07:44:12;12.35;;;3.70;;
53843;SDS011;39744;53.314;5.710;2023-03-31T07:46:40;9.05;;;3.83;;
53843;SDS011;39744;53.314;5.710;2023-03-31T07:49:06;8.27;;;3.40;;
53843;SDS011;39744;53.314;5.710;2023-03-31T07:51:33;11.95;;;3.75;;
53843;SDS011;39744;53.314;5.710;2023-03-31T07:53:59;10.32;;;3.47;;
53843;SDS011;39744;53.314;5.710;2023-03-31T07:56:25;9.32;;;3.40;;
53843;SDS011;39744;53.314;5.710;2023-03-31T07:58:52;9.07;;;3.47;;
53843;SDS011;39744;53.314;5.710;2023-03-31T08:01:18;9.02;;;3.17;;
53843;SDS011;39744;53.314;5.710;2023-03-31T08:03:45;6.00;;;2.30;;
53843;SDS011;39744;53.314;5.710;2023-03-31T08:06:21;5.57;;;2.10;;
53843;SDS011;39744;53.314;5.710;2023-03-31T08:08:48;6.20;;;1.80;;
53843;SDS011;39744;53.314;5.710;2023-03-31T08:11:14;4.85;;;1.80;;
53843;SDS011;39744;53.314;5.710;2023-03-31T08:13:41;5.15;;;1.80;;
53843;SDS011;39744;53.314;5.710;2023-03-31T08:16:07;5.38;;;1.67;;
53843;SDS011;39744;53.314;5.710;2023-03-31T08:18:33;8.07;;;1.90;;
53843;SDS011;39744;53.314;5.710;2023-03-31T08:20:59;5.07;;;2.17;;
53843;SDS011;39744;53.314;5.710;2023-03-31T08:23:25;6.70;;;2.40;;
53843;SDS011;39744;53.314;5.710;2023-03-31T08:25:51;7.10;;;2.50;;
53843;SDS011;39744;53.314;5.710;2023-03-31T08:28:17;7.85;;;3.00;;
53843;SDS011;39744;53.314;5.710;2023-03-31T08:30:43;7.55;;;3.22;;
53843;SDS011;39744;53.314;5.710;2023-03-31T08:33:11;7.65;;;3.40;;
53843;SDS011;39744;53.314;5.710;2023-03-31T08:35:37;8.70;;;3.45;;
53843;SDS011;39744;53.314;5.710;2023-03-31T08:38:03;10.52;;;3.92;;
53843;SDS011;39744;53.314;5.710;2023-03-31T08:40:30;12.63;;;4.10;;
53843;SDS011;39744;53.314;5.710;2023-03-31T08:45:36;8.23;;;4.50;;
53843;SDS011;39744;53.314;5.710;2023-03-31T08:48:10;11.10;;;4.25;;
53843;SDS011;39744;53.314;5.710;2023-03-31T08:50:44;11.73;;;4.78;;
53843;SDS011;39744;53.314;5.710;2023-03-31T08:55:54;8.80;;;4.00;;
53843;SDS011;39744;53.314;5.710;2023-03-31T08:58:39;10.07;;;4.28;;
53843;SDS011;39744;53.314;5.710;2023-03-31T09:01:13;9.93;;;4.30;;
53843;SDS011;39744;53.314;5.710;2023-03-31T09:06:13;11.50;;;5.15;;
53843;SDS011;39744;53.314;5.710;2023-03-31T09:08:41;10.07;;;4.90;;
53843;SDS011;39744;53.314;5.710;2023-03-31T09:11:29;13.90;;;4.65;;
53843;SDS011;39744;53.314;5.710;2023-03-31T09:14:12;13.75;;;4.85;;
53843;SDS011;39744;53.314;5.710;2023-03-31T09:19:17;9.90;;;4.50;;
53843;SDS011;39744;53.314;5.710;2023-03-31T09:21:51;10.40;;;4.95;;
53843;SDS011;39744;53.314;5.710;2023-03-31T09:24:19;9.40;;;4.30;;
53843;SDS011;39744;53.314;5.710;2023-03-31T09:29:19;10.95;;;4.47;;
53843;SDS011;39744;53.314;5.710;2023-03-31T09:31:45;7.90;;;3.80;;
53843;SDS011;39744;53.314;5.710;2023-03-31T09:34:16;12.05;;;4.72;;
53843;SDS011;39744;53.314;5.710;2023-03-31T09:36:44;9.85;;;3.72;;
53843;SDS011;39744;53.314;5.710;2023-03-31T09:39:11;10.38;;;3.72;;
53843;SDS011;39744;53.314;5.710;2023-03-31T09:41:38;12.57;;;3.92;;
53843;SDS011;39744;53.314;5.710;2023-03-31T09:44:12;11.77;;;4.03;;
53843;SDS011;39744;53.314;5.710;2023-03-31T09:46:40;7.63;;;3.67;;
53843;SDS011;39744;53.314;5.710;2023-03-31T09:49:09;9.90;;;3.47;;
53843;SDS011;39744;53.314;5.710;2023-03-31T09:51:37;11.20;;;3.70;;
53843;SDS011;39744;53.314;5.710;2023-03-31T09:59:15;8.27;;;2.80;;
53843;SDS011;39744;53.314;5.710;2023-03-31T10:01:42;9.65;;;3.28;;
53843;SDS011;39744;53.314;5.710;2023-03-31T10:04:09;7.97;;;3.03;;
53843;SDS011;39744;53.314;5.710;2023-03-31T10:06:41;8.77;;;3.07;;
53843;SDS011;39744;53.314;5.710;2023-03-31T10:09:08;7.63;;;2.90;;
53843;SDS011;39744;53.314;5.710;2023-03-31T10:11:35;7.50;;;2.90;;
53843;SDS011;39744;53.314;5.710;2023-03-31T10:14:02;6.47;;;2.83;;
53843;SDS011;39744;53.314;5.710;2023-03-31T10:16:33;7.45;;;2.85;;
53843;SDS011;39744;53.314;5.710;2023-03-31T10:21:38;8.32;;;3.45;;
53843;SDS011;39744;53.314;5.710;2023-03-31T10:24:08;10.68;;;3.97;;
53843;SDS011;39744;53.314;5.710;2023-03-31T10:26:34;9.63;;;3.78;;
53843;SDS011;39744;53.314;5.710;2023-03-31T10:29:00;8.75;;;3.70;;
53843;SDS011;39744;53.314;5.710;2023-03-31T10:31:33;10.60;;;4.03;;
53843;SDS011;39744;53.314;5.710;2023-03-31T10:34:03;12.40;;;4.03;;
53843;SDS011;39744;53.314;5.710;2023-03-31T10:36:30;9.90;;;4.30;;
53843;SDS011;39744;53.314;5.710;2023-03-31T10:38:56;10.63;;;4.45;;
53843;SDS011;39744;53.314;5.710;2023-03-31T10:41:23;15.85;;;4.82;;
53843;SDS011;39744;53.314;5.710;2023-03-31T10:43:52;17.35;;;5.32;;
53843;SDS011;39744;53.314;5.710;2023-03-31T10:46:18;14.05;;;5.25;;
53843;SDS011;39744;53.314;5.710;2023-03-31T10:48:45;14.32;;;4.88;;
53843;SDS011;39744;53.314;5.710;2023-03-31T10:51:18;15.80;;;5.57;;
53843;SDS011;39744;53.314;5.710;2023-03-31T10:53:54;12.40;;;5.00;;
53843;SDS011;39744;53.314;5.710;2023-03-31T10:56:28;14.20;;;4.90;;
53843;SDS011;39744;53.314;5.710;2023-03-31T11:01:42;14.68;;;4.68;;
53843;SDS011;39744;53.314;5.710;2023-03-31T11:04:34;13.25;;;4.60;;
53843;SDS011;39744;53.314;5.710;2023-03-31T11:09:40;14.18;;;4.65;;
53843;SDS011;39744;53.314;5.710;2023-03-31T11:14:51;13.70;;;4.50;;
53843;SDS011;39744;53.314;5.710;2023-03-31T11:17:40;15.15;;;4.88;;
53843;SDS011;39744;53.314;5.710;2023-03-31T11:30:46;12.98;;;4.32;;
53843;SDS011;39744;53.314;5.710;2023-03-31T11:35:42;11.00;;;3.85;;
53843;SDS011;39744;53.314;5.710;2023-03-31T11:43:32;12.73;;;4.00;;
53843;SDS011;39744;53.314;5.710;2023-03-31T11:46:04;12.77;;;3.78;;
53843;SDS011;39744;53.314;5.710;2023-03-31T11:51:00;12.18;;;3.20;;
53843;SDS011;39744;53.314;5.710;2023-03-31T11:53:32;9.85;;;3.05;;
53843;SDS011;39744;53.314;5.710;2023-03-31T11:55:59;9.93;;;3.03;;
53843;SDS011;39744;53.314;5.710;2023-03-31T11:58:33;7.15;;;1.98;;
53843;SDS011;39744;53.314;5.710;2023-03-31T12:04:05;8.15;;;2.67;;
53843;SDS011;39744;53.314;5.710;2023-03-31T12:06:36;10.35;;;2.72;;
53843;SDS011;39744;53.314;5.710;2023-03-31T12:09:11;8.60;;;2.88;;
53843;SDS011;39744;53.314;5.710;2023-03-31T12:14:21;6.27;;;2.80;;
53843;SDS011;39744;53.314;5.710;2023-03-31T12:16:50;5.82;;;2.38;;
53843;SDS011;39744;53.314;5.710;2023-03-31T12:19:18;8.15;;;2.55;;
53843;SDS011;39744;53.314;5.710;2023-03-31T12:21:52;6.95;;;2.33;;
53843;SDS011;39744;53.314;5.710;2023-03-31T12:24:20;6.85;;;2.25;;
53843;SDS011;39744;53.314;5.710;2023-03-31T12:29:27;8.68;;;2.78;;
53843;SDS011;39744;53.314;5.710;2023-03-31T12:31:55;10.73;;;3.13;;
53843;SDS011;39744;53.314;5.710;2023-03-31T12:34:21;11.70;;;3.22;;
53843;SDS011;39744;53.314;5.710;2023-03-31T12:39:30;7.55;;;2.35;;
53843;SDS011;39744;53.314;5.710;2023-03-31T12:44:28;6.35;;;2.03;;
53843;SDS011;39744;53.314;5.710;2023-03-31T12:49:45;8.77;;;2.03;;
53843;SDS011;39744;53.314;5.710;2023-03-31T12:57:27;7.20;;;2.13;;
53843;SDS011;39744;53.314;5.710;2023-03-31T13:02:38;9.63;;;2.42;;
53843;SDS011;39744;53.314;5.710;2023-03-31T13:07:49;8.88;;;2.28;;
53843;SDS011;39744;53.314;5.710;2023-03-31T13:12:42;8.40;;;2.80;;
53843;SDS011;39744;53.314;5.710;2023-03-31T13:15:21;10.27;;;2.90;;
53843;SDS011;39744;53.314;5.710;2023-03-31T13:17:56;9.85;;;2.55;;
53843;SDS011;39744;53.314;5.710;2023-03-31T13:22:58;11.90;;;2.50;;
53843;SDS011;39744;53.314;5.710;2023-03-31T13:25:25;9.93;;;2.42;;
53843;SDS011;39744;53.314;5.710;2023-03-31T13:27:52;13.10;;;3.28;;
53843;SDS011;39744;53.314;5.710;2023-03-31T13:33:24;9.75;;;2.85;;
53843;SDS011;39744;53.314;5.710;2023-03-31T13:35:53;8.02;;;2.22;;
53843;SDS011;39744;53.314;5.710;2023-03-31T13:43:24;10.93;;;2.60;;
53843;SDS011;39744;53.314;5.710;2023-03-31T13:51:08;10.80;;;2.55;;
53843;SDS011;39744;53.314;5.710;2023-03-31T13:59:04;8.05;;;2.20;;
53843;SDS011;39744;53.314;5.710;2023-03-31T14:04:06;8.07;;;2.10;;
53843;SDS011;39744;53.314;5.710;2023-03-31T14:06:46;10.13;;;3.00;;
53843;SDS011;39744;53.314;5.710;2023-03-31T14:09:18;7.55;;;2.22;;
53843;SDS011;39744;53.314;5.710;2023-03-31T14:11:47;8.50;;;2.13;;
53843;SDS011;39744;53.314;5.710;2023-03-31T14:14:15;9.80;;;2.20;;
53843;SDS011;39744;53.314;5.710;2023-03-31T14:16:45;9.35;;;2.00;;
53843;SDS011;39744;53.314;5.710;2023-03-31T14:21:43;7.00;;;2.10;;
53843;SDS011;39744;53.314;5.710;2023-03-31T14:24:21;8.77;;;2.00;;
53843;SDS011;39744;53.314;5.710;2023-03-31T14:29:16;8.07;;;2.13;;
53843;SDS011;39744;53.314;5.710;2023-03-31T14:31:58;5.95;;;1.85;;
53843;SDS011;39744;53.314;5.710;2023-03-31T14:37:00;8.18;;;2.03;;
53843;SDS011;39744;53.314;5.710;2023-03-31T14:39:48;7.88;;;1.77;;
53843;SDS011;39744;53.314;5.710;2023-03-31T14:42:14;6.35;;;1.80;;
53843;SDS011;39744;53.314;5.710;2023-03-31T14:44:41;6.60;;;2.00;;
53843;SDS011;39744;53.314;5.710;2023-03-31T14:47:19;9.88;;;1.88;;
53843;SDS011;39744;53.314;5.710;2023-03-31T14:49:45;5.85;;;2.00;;
53843;SDS011;39744;53.314;5.710;2023-03-31T14:52:12;10.52;;;2.38;;
53843;SDS011;39744;53.314;5.710;2023-03-31T14:54:39;9.02;;;1.95;;
53843;SDS011;39744;53.314;5.710;2023-03-31T14:57:06;7.47;;;2.10;;
53843;SDS011;39744;53.314;5.710;2023-03-31T14:59:33;6.80;;;1.77;;
53843;SDS011;39744;53.314;5.710;2023-03-31T15:02:02;6.22;;;2.00;;
53843;SDS011;39744;53.314;5.710;2023-03-31T15:04:30;4.63;;;1.60;;
53843;SDS011;39744;53.314;5.710;2023-03-31T15:07:00;5.05;;;1.67;;
53843;SDS011;39744;53.314;5.710;2023-03-31T15:09:29;4.00;;;1.65;;
53843;SDS011;39744;53.314;5.710;2023-03-31T15:12:04;4.90;;;1.42;;
53843;SDS011;39744;53.314;5.710;2023-03-31T15:14:35;8.93;;;1.65;;
53843;SDS011;39744;53.314;5.710;2023-03-31T15:17:04;5.10;;;1.40;;
53843;SDS011;39744;53.314;5.710;2023-03-31T15:19:34;3.67;;;1.40;;
53843;SDS011;39744;53.314;5.710;2023-03-31T15:22:15;5.45;;;1.60;;
53843;SDS011;39744;53.314;5.710;2023-03-31T15:24:45;5.93;;;1.17;;
53843;SDS011;39744;53.314;5.710;2023-03-31T15:27:13;6.47;;;1.50;;
53843;SDS011;39744;53.314;5.710;2023-03-31T15:29:44;6.47;;;1.63;;
53843;SDS011;39744;53.314;5.710;2023-03-31T15:32:16;6.55;;;1.75;;
53843;SDS011;39744;53.314;5.710;2023-03-31T15:34:43;5.40;;;1.73;;
53843;SDS011;39744;53.314;5.710;2023-03-31T15:37:10;6.43;;;1.55;;
53843;SDS011;39744;53.314;5.710;2023-03-31T15:39:37;6.63;;;1.80;;
53843;SDS011;39744;53.314;5.710;2023-03-31T15:42:04;6.45;;;2.20;;
53843;SDS011;39744;53.314;5.710;2023-03-31T15:47:23;5.72;;;1.90;;
53843;SDS011;39744;53.314;5.710;2023-03-31T15:49:57;6.55;;;1.80;;
53843;SDS011;39744;53.314;5.710;2023-03-31T15:52:25;5.63;;;1.63;;
53843;SDS011;39744;53.314;5.710;2023-03-31T15:54:52;3.75;;;1.42;;
53843;SDS011;39744;53.314;5.710;2023-03-31T15:57:18;6.20;;;2.15;;
53843;SDS011;39744;53.314;5.710;2023-03-31T15:59:47;7.03;;;2.08;;
53843;SDS011;39744;53.314;5.710;2023-03-31T16:02:15;6.15;;;1.70;;
53843;SDS011;39744;53.314;5.710;2023-03-31T16:04:42;7.72;;;2.13;;
53843;SDS011;39744;53.314;5.710;2023-03-31T16:07:13;4.90;;;1.55;;
53843;SDS011;39744;53.314;5.710;2023-03-31T16:12:37;9.80;;;1.77;;
53843;SDS011;39744;53.314;5.710;2023-03-31T16:15:11;5.25;;;2.10;;
53843;SDS011;39744;53.314;5.710;2023-03-31T16:17:45;7.18;;;2.05;;
53843;SDS011;39744;53.314;5.710;2023-03-31T16:20:31;6.93;;;2.50;;
53843;SDS011;39744;53.314;5.710;2023-03-31T16:23:01;10.93;;;1.90;;
53843;SDS011;39744;53.314;5.710;2023-03-31T16:25:29;6.47;;;2.28;;
53843;SDS011;39744;53.314;5.710;2023-03-31T16:27:56;4.53;;;1.70;;
53843;SDS011;39744;53.314;5.710;2023-03-31T16:30:40;11.55;;;2.00;;
53843;SDS011;39744;53.314;5.710;2023-03-31T16:33:07;8.68;;;2.22;;
53843;SDS011;39744;53.314;5.710;2023-03-31T16:35:34;8.65;;;2.35;;
53843;SDS011;39744;53.314;5.710;2023-03-31T16:38:04;8.68;;;2.15;;
53843;SDS011;39744;53.314;5.710;2023-03-31T16:40:34;10.40;;;2.03;;
53843;SDS011;39744;53.314;5.710;2023-03-31T16:43:07;7.32;;;1.92;;
53843;SDS011;39744;53.314;5.710;2023-03-31T16:45:33;8.13;;;2.10;;
53843;SDS011;39744;53.314;5.710;2023-03-31T16:48:00;7.43;;;2.40;;
53843;SDS011;39744;53.314;5.710;2023-03-31T16:50:26;7.35;;;2.05;;
53843;SDS011;39744;53.314;5.710;2023-03-31T16:52:52;8.60;;;2.30;;
53843;SDS011;39744;53.314;5.710;2023-03-31T16:55:18;6.35;;;2.25;;
53843;SDS011;39744;53.314;5.710;2023-03-31T16:57:44;5.43;;;2.50;;
53843;SDS011;39744;53.314;5.710;2023-03-31T17:00:11;7.32;;;1.88;;
53843;SDS011;39744;53.314;5.710;2023-03-31T17:02:37;6.38;;;2.10;;
53843;SDS011;39744;53.314;5.710;2023-03-31T17:05:03;7.22;;;2.13;;
53843;SDS011;39744;53.314;5.710;2023-03-31T17:07:29;6.20;;;1.88;;
53843;SDS011;39744;53.314;5.710;2023-03-31T17:09:55;6.72;;;2.17;;
53843;SDS011;39744;53.314;5.710;2023-03-31T17:12:21;7.55;;;2.10;;
53843;SDS011;39744;53.314;5.710;2023-03-31T17:14:47;7.90;;;2.40;;
53843;SDS011;39744;53.314;5.710;2023-03-31T17:17:13;4.80;;;2.10;;
53843;SDS011;39744;53.314;5.710;2023-03-31T17:19:39;5.00;;;1.77;;
53843;SDS011;39744;53.314;5.710;2023-03-31T17:22:06;6.35;;;2.10;;
53843;SDS011;39744;53.314;5.710;2023-03-31T17:24:32;6.57;;;2.20;;
53843;SDS011;39744;53.314;5.710;2023-03-31T17:26:58;7.47;;;2.10;;
53843;SDS011;39744;53.314;5.710;2023-03-31T17:29:24;7.03;;;2.10;;
53843;SDS011;39744;53.314;5.710;2023-03-31T17:31:51;6.00;;;2.00;;